Terminal Aerodrome Forecast
Issued by NWS

Home | Current Version | Previous Version | Text Only | Print | Product List | Glossary On
Versions: 1 2 3 4 5 6 7 8 9 10 11 12 13 14 15 16 17
000
FTUS43 KBIS 160500
TAFMOT
TAF
KMOT 160526Z 1606/1706 09020G26KT 2SM -SN BKN015 OVC025
      TEMPO 1606/1609 1SM -SN BR BKN008 OVC015
     FM160900 06020G26KT 2SM -SN BR BKN008 OVC015
     FM161300 03017G23KT 6SM BR SCT008 BKN015 OVC025
     FM161800 04015KT P6SM BKN035 OVC070
     FM170300 04010KT 6SM BR BKN020 OVC035=

USA.gov is the U.S. government's official web portal to all federal, state and local government web resources and services.